MyMeetScores TOP 100 TOP TEAMS UPCOMING MEETS COMPLETED MEETS LATEST MEETS ADD SCORES SUPPORT SHOP
Check Out Our Number One Seller!Shop@
MyMeetScores
 
Cadence Nuttbrock, Power and Grace Gymnastics - MyMeetScores.com
Cadence Nuttbrock
Power and Grace Gymnastics
Personal Bests
Level Vault Bars Beam Floor AA
XD 8.900 8.700 9.225 9.225 35.475
XG 8.975 9.575 9.650 9.800 36.975
XP 9.450 9.250 9.375 9.525 36.725
XS 9.300 9.500 9.300 9.300 37.050
Scores on America's Top 100as of 04.24.2024
Year Level Vault Bars Beam Floor AA
2019 XG9.800

Click here to view our exclusive Top 100 Collection
Meet Scores
Date Meet Team Session Level Division Vault Bars Beam Floor AA
2024-03-22 South Dakota State Meet Power and Grace Gymnastics 1 XD XD 16+ years 8.850 4 8.050 4 8.850 2 9.125 2 34.875 3
2024-03-08 River City Spring Power and Grace Gymnastics 7 XD 15+ 8.575 3 6.550 4 9.225 3 9.200 1 33.550 3
2024-02-16 Sweetheart Spectacular Power and Grace Gymnastics 4 XD XD all age 8.700 1 7.500 5 8.800 2 9.125 4 34.125 3
2024-01-19 Rumble in the Jungle 2024 Power and Grace Gymnastics 5 XD Jr/Sr 12+ 8.725 2 7.050 2 8.950 3 9.225 1 33.950 2
2024-01-05 2024 River City Classic Power and Grace Gymnastics 4B XD Jr B 8.900 7T 7.450 10 8.125 8 9.225 5 33.700 9
2023-12-02 Hula Fest 2023 Power and Grace Gymnastics I XD 12-18 yrs 8.775 2 8.700 4 8.925 6 9.075 2 35.475 2
2023-04-21 2023 Region 4 Xcel Championships Power and Grace Gymnastics P11 XP Sr Q 8.975 3 9.075 6 8.800 8 9.400 1 36.250 2
2023-03-24 South Dakota State Meet - Xcel Gold, Plat, Di Power and Grace Gymnastics 6 XP 16+ yrs. 0.000 2*
2023-01-27 2023 River City Classic Power and Grace Gymnastics 01S XP Sr D 9.150 1 9.100 1 8.750 3 9.525 1 36.525 2
2023-01-20 Rumble in the Jungle 2023 Power and Grace Gymnastics 4 XP 16+ yrs 8.725 1 8.825 2 9.325 1 9.250 1 36.125 1
2022-12-03 Hula Fest 2022 Power and Grace Gymnastics III XP 13+ 9.425 1 8.650 4 8.350 9T 9.150 1 35.575 1
2022-04-29 R4 Xcel Regionals 2022 Power and Grace Gymnastics P04 XP Sr B1 9.150 1T 9.025 8 8.650 15 9.350 2 36.175 5
2022-03-25 South Dakota State Championships Power and Grace Gymnastics 08 XP 15+ 9.450 1 9.050 1T 9.075 1 9.150 1 36.725 1
2022-03-11 Yankton Spring Power and Grace Gymnastics 5 XP 12+ A 9.050 1 8.600 1 9.175 1 9.050 1 35.875 1
2022-02-18 The Sweetheart Spectacular Power and Grace Gymnastics 6 XP XP 13+ 9.425 2 8.625 2 8.500 3 9.000 1 35.550 1
2022-02-04 2022 River City Gymnastics Classic Power and Grace Gymnastics 7B XP Sr B 8.200 9T 8.725 2T 9.300 2 9.175 3T 35.400 1
2022-01-21 Rumble in the Jungle 2022 Power and Grace Gymnastics 4 XP 14+ yrs 9.350 1 8.350 1 9.125 1T 9.450 1 36.275 1
2022-01-07 Drop It Like It's Hot with Katelyn Ohashi Power and Grace Gymnastics 4 XP Sr 8.400 5 9.250 1 8.850 1 9.100 1 35.600 1
2021-04-23 Region 4 Xcel Championships Power and Grace Gymnastics W08 XP Sr C 9.100 6 8.475 8 8.875 5 9.325 7T 35.775 6
2021-03-19 South Dakota State Meet Power and Grace Gymnastics 4 XP 14 8.650 7 9.100 2 8.400 6 9.425 1 35.575 2
2021-03-12 River City Gymnastics Spring "In" Classic Power and Grace Gymnastics 4 XP Sr. 0.000 14*
2021-02-19 The Sweetheart Spectacular Power and Grace Gymnastics 3 XP XP 14+ 8.725 3 8.600 1 9.375 1 8.950 6 35.650 1
2021-01-23 Rumble In The Jungle 2021 Power and Grace Gymnastics 4 XP All Ages 8.800 5T 8.800 3 8.900 1 8.800 3T 35.300 2
2020-03-06 Wings Xcel Invitational Power and Grace Gymnastics 1 XG 11-13 8.750 7 9.200 4 9.050 3 9.400 1 36.400 1T
2020-01-31 River City Classic Power and Grace Gymnastics 09 XG Junior A 8.425 10 9.450 1 9.000 6T 9.750 1 36.625 1
2020-01-17 Rumble in the Jungle 2020 Power and Grace Gymnastics 4 XG 13 yrs 8.800 6 8.750 1 9.650 1 9.200 1 36.400 1
2020-01-10 All American Invitational Power and Grace Gymnastics 4 XG Age 13 8.700 2 9.300 1 9.300 1 9.625 1 36.925 1
2019-04-26 Region IV Xcel Championships Power and Grace Gymnastics W-3 XG Sr G 8.975 11T 9.225 12 8.750 14 9.125 10T 36.075 12
2019-03-23 SD State Meet Power and Grace Gymnastics 1 XG Ages 13 8.700 4T 9.325 1 9.150 4 9.800 1 36.975 1
2019-03-09 River City Spring "In" Classic Power and Grace Gymnastics 4 XG Xcel GOLD 11-12 8.800 8 9.200 2 9.350 2 9.500 3 36.850 2
2019-03-02 Wings Spring Invite Power and Grace Gymnastics 3 XG 12&13yr old 8.800 6 9.400 1 9.200 3 9.550 2 36.950 1
2019-02-01 2019 River City Classic Power and Grace Gymnastics 12 XG jr e 8.600 10 9.575 1 9.050 5T 9.400 8 36.625 4
2019-01-18 Rumble in the Jungle 2019 Power and Grace Gymnastics 5 XG Age 12 1 8.400 8 9.250 2 9.350 1 27.000 8
2018-04-20 XCEL Regionals- Region 4 Power and Grace Gymnastics 05S XS Sr B 9.300 7 8.450 23 9.175 17T 9.225 10T 36.150 16
2018-03-03 Wings Spring Fling Meet Power and Grace Gymnastics All XS 11 9.250 1 8.600 9 8.850 6 9.200 4 35.900 4
2018-02-01 2018 River City Classic Power and Grace Gymnastics 5 XS 11 8.950 4 9.075 8 9.250 5 9.125 4 36.400 3T
2018-01-19 Rumble In The Jungle 2018 Power and Grace Gymnastics 8 XS 11 yrs. 9.000 2 9.500 1 9.300 1T 9.250 2T 37.050 1
2017-12-15 Mega Madness Power and Grace Gymnastics 5 XS 11 8.900 5 8.700 10 8.200 6 9.300 2 35.100 3